sensor_id;sensor_type;location;lat;lon;timestamp;P1;durP1;ratioP1;P2;durP2;ratioP2
15480;SDS011;7842;50.904;6.670;2023-05-10T00:00:28;13.07;;;9.98;;
15480;SDS011;7842;50.904;6.670;2023-05-10T00:02:54;13.20;;;11.03;;
15480;SDS011;7842;50.904;6.670;2023-05-10T00:05:20;14.70;;;10.20;;
15480;SDS011;7842;50.904;6.670;2023-05-10T00:07:46;15.30;;;10.90;;
15480;SDS011;7842;50.904;6.670;2023-05-10T00:10:12;16.52;;;11.30;;
15480;SDS011;7842;50.904;6.670;2023-05-10T00:12:38;12.30;;;9.77;;
15480;SDS011;7842;50.904;6.670;2023-05-10T00:15:04;15.15;;;12.10;;
15480;SDS011;7842;50.904;6.670;2023-05-10T00:17:30;15.02;;;11.15;;
15480;SDS011;7842;50.904;6.670;2023-05-10T00:19:56;15.70;;;11.65;;
15480;SDS011;7842;50.904;6.670;2023-05-10T00:22:22;15.57;;;12.10;;
15480;SDS011;7842;50.904;6.670;2023-05-10T00:24:48;15.35;;;11.25;;
15480;SDS011;7842;50.904;6.670;2023-05-10T00:27:14;16.38;;;12.48;;
15480;SDS011;7842;50.904;6.670;2023-05-10T00:29:40;16.58;;;12.02;;
15480;SDS011;7842;50.904;6.670;2023-05-10T00:32:06;15.48;;;12.02;;
15480;SDS011;7842;50.904;6.670;2023-05-10T00:34:32;15.95;;;12.27;;
15480;SDS011;7842;50.904;6.670;2023-05-10T00:36:58;18.20;;;13.05;;
15480;SDS011;7842;50.904;6.670;2023-05-10T00:39:24;19.65;;;13.48;;
15480;SDS011;7842;50.904;6.670;2023-05-10T00:41:51;16.10;;;12.20;;
15480;SDS011;7842;50.904;6.670;2023-05-10T00:44:17;19.30;;;13.47;;
15480;SDS011;7842;50.904;6.670;2023-05-10T00:46:43;16.27;;;12.27;;
15480;SDS011;7842;50.904;6.670;2023-05-10T00:49:10;15.88;;;12.05;;
15480;SDS011;7842;50.904;6.670;2023-05-10T00:51:36;18.10;;;13.00;;
15480;SDS011;7842;50.904;6.670;2023-05-10T00:54:02;16.20;;;12.63;;
15480;SDS011;7842;50.904;6.670;2023-05-10T00:56:28;15.88;;;12.68;;
15480;SDS011;7842;50.904;6.670;2023-05-10T00:58:55;16.95;;;12.15;;
15480;SDS011;7842;50.904;6.670;2023-05-10T01:01:21;16.50;;;13.00;;
15480;SDS011;7842;50.904;6.670;2023-05-10T01:03:47;15.27;;;12.48;;
15480;SDS011;7842;50.904;6.670;2023-05-10T01:06:13;15.85;;;12.70;;
15480;SDS011;7842;50.904;6.670;2023-05-10T01:08:39;14.82;;;12.27;;
15480;SDS011;7842;50.904;6.670;2023-05-10T01:11:06;15.00;;;11.93;;
15480;SDS011;7842;50.904;6.670;2023-05-10T01:13:36;15.02;;;11.82;;
15480;SDS011;7842;50.904;6.670;2023-05-10T01:16:04;14.32;;;11.48;;
15480;SDS011;7842;50.904;6.670;2023-05-10T01:18:33;13.63;;;10.88;;
15480;SDS011;7842;50.904;6.670;2023-05-10T01:21:15;11.27;;;9.80;;
15480;SDS011;7842;50.904;6.670;2023-05-10T01:23:45;12.43;;;9.97;;
15480;SDS011;7842;50.904;6.670;2023-05-10T01:32:01;13.68;;;10.50;;
15480;SDS011;7842;50.904;6.670;2023-05-10T01:34:34;15.27;;;10.80;;
15480;SDS011;7842;50.904;6.670;2023-05-10T01:37:23;14.47;;;11.20;;
15480;SDS011;7842;50.904;6.670;2023-05-10T01:39:50;14.60;;;10.82;;
15480;SDS011;7842;50.904;6.670;2023-05-10T01:42:21;14.57;;;10.65;;
15480;SDS011;7842;50.904;6.670;2023-05-10T01:47:42;14.90;;;10.80;;
15480;SDS011;7842;50.904;6.670;2023-05-10T01:50:09;13.13;;;10.02;;
15480;SDS011;7842;50.904;6.670;2023-05-10T01:52:36;13.85;;;10.68;;
15480;SDS011;7842;50.904;6.670;2023-05-10T01:55:08;15.00;;;11.50;;
15480;SDS011;7842;50.904;6.670;2023-05-10T01:57:35;16.08;;;11.13;;
15480;SDS011;7842;50.904;6.670;2023-05-10T02:00:02;14.32;;;11.32;;
15480;SDS011;7842;50.904;6.670;2023-05-10T02:02:29;13.27;;;10.73;;
15480;SDS011;7842;50.904;6.670;2023-05-10T02:04:55;15.60;;;11.23;;
15480;SDS011;7842;50.904;6.670;2023-05-10T02:07:23;14.40;;;11.20;;
15480;SDS011;7842;50.904;6.670;2023-05-10T02:09:49;14.18;;;10.65;;
15480;SDS011;7842;50.904;6.670;2023-05-10T02:12:16;14.77;;;10.85;;
15480;SDS011;7842;50.904;6.670;2023-05-10T02:14:42;14.30;;;10.43;;
15480;SDS011;7842;50.904;6.670;2023-05-10T02:17:09;13.17;;;9.90;;
15480;SDS011;7842;50.904;6.670;2023-05-10T02:19:39;14.10;;;10.13;;
15480;SDS011;7842;50.904;6.670;2023-05-10T02:22:06;10.80;;;8.50;;
15480;SDS011;7842;50.904;6.670;2023-05-10T02:24:33;11.80;;;8.43;;
15480;SDS011;7842;50.904;6.670;2023-05-10T02:27:00;11.85;;;8.10;;
15480;SDS011;7842;50.904;6.670;2023-05-10T02:29:28;10.20;;;8.10;;
15480;SDS011;7842;50.904;6.670;2023-05-10T02:31:54;10.15;;;7.82;;
15480;SDS011;7842;50.904;6.670;2023-05-10T02:34:21;9.10;;;7.87;;
15480;SDS011;7842;50.904;6.670;2023-05-10T02:36:47;9.73;;;7.65;;
15480;SDS011;7842;50.904;6.670;2023-05-10T02:39:14;10.90;;;7.38;;
15480;SDS011;7842;50.904;6.670;2023-05-10T02:41:40;9.27;;;7.28;;
15480;SDS011;7842;50.904;6.670;2023-05-10T02:44:06;10.35;;;7.72;;
15480;SDS011;7842;50.904;6.670;2023-05-10T02:46:34;10.23;;;7.22;;
15480;SDS011;7842;50.904;6.670;2023-05-10T02:49:00;10.25;;;7.90;;
15480;SDS011;7842;50.904;6.670;2023-05-10T02:51:28;11.32;;;7.55;;
15480;SDS011;7842;50.904;6.670;2023-05-10T02:53:56;9.90;;;7.50;;
15480;SDS011;7842;50.904;6.670;2023-05-10T02:56:28;9.60;;;7.10;;
15480;SDS011;7842;50.904;6.670;2023-05-10T02:58:55;9.23;;;6.65;;
15480;SDS011;7842;50.904;6.670;2023-05-10T03:01:21;9.40;;;7.22;;
15480;SDS011;7842;50.904;6.670;2023-05-10T03:03:47;9.32;;;7.22;;
15480;SDS011;7842;50.904;6.670;2023-05-10T03:06:13;10.60;;;7.53;;
15480;SDS011;7842;50.904;6.670;2023-05-10T03:08:41;9.45;;;7.25;;
15480;SDS011;7842;50.904;6.670;2023-05-10T03:11:21;9.10;;;7.28;;
15480;SDS011;7842;50.904;6.670;2023-05-10T03:16:24;10.70;;;8.55;;
15480;SDS011;7842;50.904;6.670;2023-05-10T03:18:54;14.10;;;10.38;;
15480;SDS011;7842;50.904;6.670;2023-05-10T03:21:22;15.93;;;11.20;;
15480;SDS011;7842;50.904;6.670;2023-05-10T03:23:56;15.48;;;10.50;;
15480;SDS011;7842;50.904;6.670;2023-05-10T03:26:25;16.33;;;11.90;;
15480;SDS011;7842;50.904;6.670;2023-05-10T03:28:52;16.60;;;11.77;;
15480;SDS011;7842;50.904;6.670;2023-05-10T03:31:18;18.27;;;11.73;;
15480;SDS011;7842;50.904;6.670;2023-05-10T03:33:48;17.15;;;11.63;;
15480;SDS011;7842;50.904;6.670;2023-05-10T03:36:14;18.48;;;13.57;;
15480;SDS011;7842;50.904;6.670;2023-05-10T03:38:40;17.75;;;13.68;;
15480;SDS011;7842;50.904;6.670;2023-05-10T03:41:07;21.08;;;14.02;;
15480;SDS011;7842;50.904;6.670;2023-05-10T03:43:33;19.15;;;14.27;;
15480;SDS011;7842;50.904;6.670;2023-05-10T03:46:01;20.13;;;14.55;;
15480;SDS011;7842;50.904;6.670;2023-05-10T03:48:27;18.40;;;13.38;;
15480;SDS011;7842;50.904;6.670;2023-05-10T03:50:53;16.80;;;13.07;;
15480;SDS011;7842;50.904;6.670;2023-05-10T03:53:19;17.85;;;13.48;;
15480;SDS011;7842;50.904;6.670;2023-05-10T03:55:45;18.85;;;13.95;;
15480;SDS011;7842;50.904;6.670;2023-05-10T03:58:11;19.90;;;14.20;;
15480;SDS011;7842;50.904;6.670;2023-05-10T04:00:37;17.20;;;13.43;;
15480;SDS011;7842;50.904;6.670;2023-05-10T04:03:08;20.60;;;13.80;;
15480;SDS011;7842;50.904;6.670;2023-05-10T04:05:34;21.08;;;13.88;;
15480;SDS011;7842;50.904;6.670;2023-05-10T04:08:01;20.38;;;14.18;;
15480;SDS011;7842;50.904;6.670;2023-05-10T04:10:27;19.45;;;13.65;;
15480;SDS011;7842;50.904;6.670;2023-05-10T04:12:53;17.98;;;13.25;;
15480;SDS011;7842;50.904;6.670;2023-05-10T04:15:19;18.38;;;12.77;;
15480;SDS011;7842;50.904;6.670;2023-05-10T04:17:45;17.77;;;12.68;;
15480;SDS011;7842;50.904;6.670;2023-05-10T04:20:11;18.38;;;12.73;;
15480;SDS011;7842;50.904;6.670;2023-05-10T04:22:37;17.98;;;13.10;;
15480;SDS011;7842;50.904;6.670;2023-05-10T04:25:03;17.90;;;13.02;;
15480;SDS011;7842;50.904;6.670;2023-05-10T04:27:30;19.15;;;13.20;;
15480;SDS011;7842;50.904;6.670;2023-05-10T04:29:56;17.58;;;12.77;;
15480;SDS011;7842;50.904;6.670;2023-05-10T04:32:22;20.25;;;13.18;;
15480;SDS011;7842;50.904;6.670;2023-05-10T04:34:48;19.97;;;12.93;;
15480;SDS011;7842;50.904;6.670;2023-05-10T04:37:16;21.42;;;13.38;;
15480;SDS011;7842;50.904;6.670;2023-05-10T04:39:42;21.05;;;13.32;;
15480;SDS011;7842;50.904;6.670;2023-05-10T04:42:08;21.15;;;13.55;;
15480;SDS011;7842;50.904;6.670;2023-05-10T04:44:34;20.15;;;13.98;;
15480;SDS011;7842;50.904;6.670;2023-05-10T04:47:00;21.13;;;12.98;;
15480;SDS011;7842;50.904;6.670;2023-05-10T04:49:27;18.80;;;12.90;;
15480;SDS011;7842;50.904;6.670;2023-05-10T04:51:53;19.95;;;13.45;;
15480;SDS011;7842;50.904;6.670;2023-05-10T04:54:19;18.65;;;12.65;;
15480;SDS011;7842;50.904;6.670;2023-05-10T04:56:45;18.08;;;12.45;;
15480;SDS011;7842;50.904;6.670;2023-05-10T04:59:11;19.48;;;12.70;;
15480;SDS011;7842;50.904;6.670;2023-05-10T05:01:37;19.58;;;12.63;;
15480;SDS011;7842;50.904;6.670;2023-05-10T05:04:03;18.42;;;12.43;;
15480;SDS011;7842;50.904;6.670;2023-05-10T05:06:29;19.35;;;12.10;;
15480;SDS011;7842;50.904;6.670;2023-05-10T05:08:55;20.15;;;12.63;;
15480;SDS011;7842;50.904;6.670;2023-05-10T05:11:21;19.25;;;12.85;;
15480;SDS011;7842;50.904;6.670;2023-05-10T05:13:47;16.98;;;11.80;;
15480;SDS011;7842;50.904;6.670;2023-05-10T05:16:14;20.10;;;12.88;;
15480;SDS011;7842;50.904;6.670;2023-05-10T05:18:40;17.97;;;11.80;;
15480;SDS011;7842;50.904;6.670;2023-05-10T05:21:15;16.93;;;12.00;;
15480;SDS011;7842;50.904;6.670;2023-05-10T05:23:41;16.50;;;11.68;;
15480;SDS011;7842;50.904;6.670;2023-05-10T05:26:08;19.25;;;11.90;;
15480;SDS011;7842;50.904;6.670;2023-05-10T05:28:34;18.63;;;12.50;;
15480;SDS011;7842;50.904;6.670;2023-05-10T05:31:02;17.33;;;12.13;;
15480;SDS011;7842;50.904;6.670;2023-05-10T05:33:28;17.73;;;12.02;;
15480;SDS011;7842;50.904;6.670;2023-05-10T05:35:54;18.88;;;11.82;;
15480;SDS011;7842;50.904;6.670;2023-05-10T05:38:20;16.27;;;11.43;;
15480;SDS011;7842;50.904;6.670;2023-05-10T05:40:46;17.35;;;11.85;;
15480;SDS011;7842;50.904;6.670;2023-05-10T05:43:12;16.80;;;11.60;;
15480;SDS011;7842;50.904;6.670;2023-05-10T05:45:38;16.70;;;11.75;;
15480;SDS011;7842;50.904;6.670;2023-05-10T05:48:05;17.42;;;11.23;;
15480;SDS011;7842;50.904;6.670;2023-05-10T05:50:31;16.33;;;11.30;;
15480;SDS011;7842;50.904;6.670;2023-05-10T05:52:57;17.33;;;11.38;;
15480;SDS011;7842;50.904;6.670;2023-05-10T05:55:22;16.38;;;11.77;;
15480;SDS011;7842;50.904;6.670;2023-05-10T05:57:50;17.83;;;12.13;;
15480;SDS011;7842;50.904;6.670;2023-05-10T06:00:16;19.70;;;12.17;;
15480;SDS011;7842;50.904;6.670;2023-05-10T06:02:43;16.08;;;11.30;;
15480;SDS011;7842;50.904;6.670;2023-05-10T06:05:09;16.90;;;11.95;;
15480;SDS011;7842;50.904;6.670;2023-05-10T06:07:35;17.52;;;11.90;;
15480;SDS011;7842;50.904;6.670;2023-05-10T06:10:01;17.08;;;11.80;;
15480;SDS011;7842;50.904;6.670;2023-05-10T06:12:27;18.02;;;11.82;;
15480;SDS011;7842;50.904;6.670;2023-05-10T06:14:53;18.90;;;11.85;;
15480;SDS011;7842;50.904;6.670;2023-05-10T06:17:19;20.08;;;13.35;;
15480;SDS011;7842;50.904;6.670;2023-05-10T06:19:46;20.30;;;12.35;;
15480;SDS011;7842;50.904;6.670;2023-05-10T06:22:12;19.65;;;12.55;;
15480;SDS011;7842;50.904;6.670;2023-05-10T06:24:38;20.58;;;12.85;;
15480;SDS011;7842;50.904;6.670;2023-05-10T06:27:04;21.88;;;13.50;;
15480;SDS011;7842;50.904;6.670;2023-05-10T06:29:31;18.35;;;13.00;;
15480;SDS011;7842;50.904;6.670;2023-05-10T06:31:57;19.63;;;12.95;;
15480;SDS011;7842;50.904;6.670;2023-05-10T06:34:23;19.35;;;13.50;;
15480;SDS011;7842;50.904;6.670;2023-05-10T06:36:49;21.63;;;13.52;;
15480;SDS011;7842;50.904;6.670;2023-05-10T06:39:15;21.70;;;13.25;;
15480;SDS011;7842;50.904;6.670;2023-05-10T06:41:41;20.40;;;13.93;;
15480;SDS011;7842;50.904;6.670;2023-05-10T06:44:07;20.77;;;14.05;;
15480;SDS011;7842;50.904;6.670;2023-05-10T06:46:33;23.33;;;14.20;;
15480;SDS011;7842;50.904;6.670;2023-05-10T06:49:00;22.27;;;13.93;;
15480;SDS011;7842;50.904;6.670;2023-05-10T06:51:26;23.10;;;15.13;;
15480;SDS011;7842;50.904;6.670;2023-05-10T06:53:52;23.20;;;15.25;;
15480;SDS011;7842;50.904;6.670;2023-05-10T06:56:18;24.48;;;14.00;;
15480;SDS011;7842;50.904;6.670;2023-05-10T06:58:46;20.88;;;14.00;;
15480;SDS011;7842;50.904;6.670;2023-05-10T07:01:12;20.85;;;13.68;;
15480;SDS011;7842;50.904;6.670;2023-05-10T07:03:38;21.70;;;13.60;;
15480;SDS011;7842;50.904;6.670;2023-05-10T07:06:04;20.90;;;13.93;;
15480;SDS011;7842;50.904;6.670;2023-05-10T07:08:32;21.10;;;14.02;;
15480;SDS011;7842;50.904;6.670;2023-05-10T07:11:05;20.27;;;13.85;;
15480;SDS011;7842;50.904;6.670;2023-05-10T07:13:35;19.55;;;13.73;;
15480;SDS011;7842;50.904;6.670;2023-05-10T07:16:02;21.55;;;13.80;;
15480;SDS011;7842;50.904;6.670;2023-05-10T07:18:31;19.55;;;13.43;;
15480;SDS011;7842;50.904;6.670;2023-05-10T07:20:57;21.23;;;13.52;;
15480;SDS011;7842;50.904;6.670;2023-05-10T07:23:23;18.02;;;11.45;;
15480;SDS011;7842;50.904;6.670;2023-05-10T07:25:49;16.55;;;11.25;;
15480;SDS011;7842;50.904;6.670;2023-05-10T07:28:18;19.83;;;12.55;;
15480;SDS011;7842;50.904;6.670;2023-05-10T07:30:45;17.23;;;11.07;;
15480;SDS011;7842;50.904;6.670;2023-05-10T07:33:12;13.17;;;8.77;;
15480;SDS011;7842;50.904;6.670;2023-05-10T07:35:38;11.60;;;7.70;;
15480;SDS011;7842;50.904;6.670;2023-05-10T07:38:04;12.73;;;8.13;;
15480;SDS011;7842;50.904;6.670;2023-05-10T07:40:30;10.75;;;8.10;;
15480;SDS011;7842;50.904;6.670;2023-05-10T07:42:57;11.73;;;7.85;;
15480;SDS011;7842;50.904;6.670;2023-05-10T07:45:23;9.40;;;6.60;;
15480;SDS011;7842;50.904;6.670;2023-05-10T07:47:49;8.50;;;5.53;;
15480;SDS011;7842;50.904;6.670;2023-05-10T07:50:15;7.88;;;5.40;;
15480;SDS011;7842;50.904;6.670;2023-05-10T07:52:41;8.43;;;5.80;;
15480;SDS011;7842;50.904;6.670;2023-05-10T07:55:07;8.52;;;5.80;;
15480;SDS011;7842;50.904;6.670;2023-05-10T07:57:34;8.50;;;6.07;;
15480;SDS011;7842;50.904;6.670;2023-05-10T08:00:00;9.10;;;6.32;;
15480;SDS011;7842;50.904;6.670;2023-05-10T08:02:26;7.60;;;5.73;;
15480;SDS011;7842;50.904;6.670;2023-05-10T08:04:52;7.90;;;6.30;;
15480;SDS011;7842;50.904;6.670;2023-05-10T08:07:18;9.57;;;7.40;;
15480;SDS011;7842;50.904;6.670;2023-05-10T08:09:44;10.93;;;7.60;;
15480;SDS011;7842;50.904;6.670;2023-05-10T08:12:10;11.13;;;7.88;;
15480;SDS011;7842;50.904;6.670;2023-05-10T08:14:36;7.63;;;6.38;;
15480;SDS011;7842;50.904;6.670;2023-05-10T08:17:02;6.13;;;4.75;;
15480;SDS011;7842;50.904;6.670;2023-05-10T08:19:29;6.30;;;4.70;;
15480;SDS011;7842;50.904;6.670;2023-05-10T08:21:55;7.28;;;5.40;;
15480;SDS011;7842;50.904;6.670;2023-05-10T08:24:21;8.73;;;6.13;;
15480;SDS011;7842;50.904;6.670;2023-05-10T08:26:47;9.03;;;6.50;;
15480;SDS011;7842;50.904;6.670;2023-05-10T08:29:14;9.23;;;7.17;;
15480;SDS011;7842;50.904;6.670;2023-05-10T08:31:40;9.27;;;7.32;;
15480;SDS011;7842;50.904;6.670;2023-05-10T08:34:06;8.05;;;6.32;;
15480;SDS011;7842;50.904;6.670;2023-05-10T08:36:32;10.45;;;6.97;;
15480;SDS011;7842;50.904;6.670;2023-05-10T08:38:58;8.10;;;6.10;;
15480;SDS011;7842;50.904;6.670;2023-05-10T08:41:24;9.13;;;6.40;;
15480;SDS011;7842;50.904;6.670;2023-05-10T08:43:51;8.65;;;6.22;;
15480;SDS011;7842;50.904;6.670;2023-05-10T08:46:18;8.15;;;6.30;;
15480;SDS011;7842;50.904;6.670;2023-05-10T08:48:45;7.22;;;6.10;;
15480;SDS011;7842;50.904;6.670;2023-05-10T08:51:13;8.45;;;6.28;;
15480;SDS011;7842;50.904;6.670;2023-05-10T08:53:39;9.40;;;6.57;;
15480;SDS011;7842;50.904;6.670;2023-05-10T08:56:05;7.47;;;5.50;;
15480;SDS011;7842;50.904;6.670;2023-05-10T08:58:31;8.67;;;6.10;;
15480;SDS011;7842;50.904;6.670;2023-05-10T09:00:58;11.52;;;7.38;;
15480;SDS011;7842;50.904;6.670;2023-05-10T09:03:25;11.30;;;7.70;;
15480;SDS011;7842;50.904;6.670;2023-05-10T09:05:51;13.60;;;9.10;;
15480;SDS011;7842;50.904;6.670;2023-05-10T09:08:17;14.53;;;9.60;;
15480;SDS011;7842;50.904;6.670;2023-05-10T09:10:44;17.33;;;10.13;;
15480;SDS011;7842;50.904;6.670;2023-05-10T09:13:12;16.77;;;10.40;;
15480;SDS011;7842;50.904;6.670;2023-05-10T09:15:38;15.38;;;9.20;;
15480;SDS011;7842;50.904;6.670;2023-05-10T09:18:04;19.80;;;11.77;;
15480;SDS011;7842;50.904;6.670;2023-05-10T09:20:30;19.65;;;12.43;;
15480;SDS011;7842;50.904;6.670;2023-05-10T09:22:56;20.42;;;12.70;;
15480;SDS011;7842;50.904;6.670;2023-05-10T09:25:22;19.88;;;12.80;;
15480;SDS011;7842;50.904;6.670;2023-05-10T09:27:48;22.27;;;13.35;;
15480;SDS011;7842;50.904;6.670;2023-05-10T09:30:28;19.50;;;12.23;;
15480;SDS011;7842;50.904;6.670;2023-05-10T09:32:55;21.73;;;13.20;;
15480;SDS011;7842;50.904;6.670;2023-05-10T09:35:22;15.98;;;11.20;;
15480;SDS011;7842;50.904;6.670;2023-05-10T09:37:49;15.77;;;10.85;;
15480;SDS011;7842;50.904;6.670;2023-05-10T09:40:19;15.98;;;10.75;;
15480;SDS011;7842;50.904;6.670;2023-05-10T09:42:59;14.50;;;10.02;;
15480;SDS011;7842;50.904;6.670;2023-05-10T09:45:26;14.73;;;10.27;;
15480;SDS011;7842;50.904;6.670;2023-05-10T09:47:52;16.73;;;10.95;;
15480;SDS011;7842;50.904;6.670;2023-05-10T09:50:19;19.30;;;12.23;;
15480;SDS011;7842;50.904;6.670;2023-05-10T09:55:11;18.30;;;12.25;;
15480;SDS011;7842;50.904;6.670;2023-05-10T09:57:37;21.15;;;13.27;;
15480;SDS011;7842;50.904;6.670;2023-05-10T10:00:04;19.30;;;12.75;;
15480;SDS011;7842;50.904;6.670;2023-05-10T10:02:31;17.07;;;11.10;;
15480;SDS011;7842;50.904;6.670;2023-05-10T10:04:57;11.85;;;7.85;;
15480;SDS011;7842;50.904;6.670;2023-05-10T10:07:23;11.90;;;7.95;;
15480;SDS011;7842;50.904;6.670;2023-05-10T10:09:50;11.98;;;8.25;;
15480;SDS011;7842;50.904;6.670;2023-05-10T10:12:16;12.53;;;8.40;;
15480;SDS011;7842;50.904;6.670;2023-05-10T10:14:42;12.73;;;8.10;;
15480;SDS011;7842;50.904;6.670;2023-05-10T10:17:08;10.52;;;7.07;;
15480;SDS011;7842;50.904;6.670;2023-05-10T10:19:35;10.95;;;8.02;;
15480;SDS011;7842;50.904;6.670;2023-05-10T10:22:01;12.33;;;7.80;;
15480;SDS011;7842;50.904;6.670;2023-05-10T10:24:27;11.07;;;7.22;;
15480;SDS011;7842;50.904;6.670;2023-05-10T10:26:54;6.97;;;5.47;;
15480;SDS011;7842;50.904;6.670;2023-05-10T10:29:23;6.25;;;4.93;;
15480;SDS011;7842;50.904;6.670;2023-05-10T10:32:10;6.57;;;5.23;;
15480;SDS011;7842;50.904;6.670;2023-05-10T10:34:37;6.28;;;5.10;;
15480;SDS011;7842;50.904;6.670;2023-05-10T10:37:05;6.20;;;4.80;;
15480;SDS011;7842;50.904;6.670;2023-05-10T10:39:31;6.25;;;4.75;;
15480;SDS011;7842;50.904;6.670;2023-05-10T10:41:58;6.22;;;4.80;;
15480;SDS011;7842;50.904;6.670;2023-05-10T10:47:31;7.80;;;5.10;;
15480;SDS011;7842;50.904;6.670;2023-05-10T10:54:58;6.07;;;4.88;;
15480;SDS011;7842;50.904;6.670;2023-05-10T10:57:25;5.63;;;4.18;;
15480;SDS011;7842;50.904;6.670;2023-05-10T10:59:51;5.68;;;4.85;;
15480;SDS011;7842;50.904;6.670;2023-05-10T11:02:33;5.38;;;4.30;;
15480;SDS011;7842;50.904;6.670;2023-05-10T11:05:00;4.53;;;3.65;;
15480;SDS011;7842;50.904;6.670;2023-05-10T11:07:55;5.10;;;4.23;;
15480;SDS011;7842;50.904;6.670;2023-05-10T11:10:22;4.47;;;3.95;;
15480;SDS011;7842;50.904;6.670;2023-05-10T11:13:07;4.05;;;3.40;;
15480;SDS011;7842;50.904;6.670;2023-05-10T11:15:35;4.13;;;3.72;;
15480;SDS011;7842;50.904;6.670;2023-05-10T11:18:17;3.30;;;2.90;;
15480;SDS011;7842;50.904;6.670;2023-05-10T11:20:52;4.53;;;3.85;;
15480;SDS011;7842;50.904;6.670;2023-05-10T11:23:20;3.80;;;3.40;;
15480;SDS011;7842;50.904;6.670;2023-05-10T11:25:47;3.20;;;2.90;;
15480;SDS011;7842;50.904;6.670;2023-05-10T11:28:13;3.83;;;3.03;;
15480;SDS011;7842;50.904;6.670;2023-05-10T11:30:40;3.63;;;3.20;;
15480;SDS011;7842;50.904;6.670;2023-05-10T11:33:06;3.33;;;3.03;;
15480;SDS011;7842;50.904;6.670;2023-05-10T11:35:39;3.10;;;2.80;;
15480;SDS011;7842;50.904;6.670;2023-05-10T11:38:15;3.40;;;3.08;;
15480;SDS011;7842;50.904;6.670;2023-05-10T11:40:41;3.50;;;3.20;;
15480;SDS011;7842;50.904;6.670;2023-05-10T11:43:08;3.67;;;3.00;;
15480;SDS011;7842;50.904;6.670;2023-05-10T11:45:35;3.65;;;3.30;;
15480;SDS011;7842;50.904;6.670;2023-05-10T11:48:01;2.90;;;2.60;;
15480;SDS011;7842;50.904;6.670;2023-05-10T11:50:28;3.20;;;2.90;;
15480;SDS011;7842;50.904;6.670;2023-05-10T11:52:54;3.42;;;3.00;;
15480;SDS011;7842;50.904;6.670;2023-05-10T11:55:21;3.55;;;2.90;;
15480;SDS011;7842;50.904;6.670;2023-05-10T11:57:47;2.90;;;2.65;;
15480;SDS011;7842;50.904;6.670;2023-05-10T12:00:13;2.93;;;2.63;;
15480;SDS011;7842;50.904;6.670;2023-05-10T12:02:40;2.60;;;2.40;;
15480;SDS011;7842;50.904;6.670;2023-05-10T12:05:06;3.72;;;2.42;;
15480;SDS011;7842;50.904;6.670;2023-05-10T12:07:32;3.17;;;2.88;;
15480;SDS011;7842;50.904;6.670;2023-05-10T12:10:05;2.60;;;2.25;;
15480;SDS011;7842;50.904;6.670;2023-05-10T12:12:40;2.70;;;2.50;;
15480;SDS011;7842;50.904;6.670;2023-05-10T12:15:10;2.70;;;2.50;;
15480;SDS011;7842;50.904;6.670;2023-05-10T12:17:37;3.42;;;2.92;;
15480;SDS011;7842;50.904;6.670;2023-05-10T12:20:22;3.90;;;2.80;;
15480;SDS011;7842;50.904;6.670;2023-05-10T12:22:52;2.60;;;2.40;;
15480;SDS011;7842;50.904;6.670;2023-05-10T12:25:20;2.67;;;2.47;;
15480;SDS011;7842;50.904;6.670;2023-05-10T12:27:56;2.65;;;2.45;;
15480;SDS011;7842;50.904;6.670;2023-05-10T12:30:30;3.92;;;2.50;;
15480;SDS011;7842;50.904;6.670;2023-05-10T12:35:31;1.80;;;1.70;;
15480;SDS011;7842;50.904;6.670;2023-05-10T12:37:57;1.97;;;1.57;;
15480;SDS011;7842;50.904;6.670;2023-05-10T12:40:24;2.30;;;1.50;;
15480;SDS011;7842;50.904;6.670;2023-05-10T12:42:50;1.40;;;1.30;;
15480;SDS011;7842;50.904;6.670;2023-05-10T12:45:17;3.05;;;1.35;;
15480;SDS011;7842;50.904;6.670;2023-05-10T12:47:43;1.13;;;1.00;;
15480;SDS011;7842;50.904;6.670;2023-05-10T12:50:09;1.30;;;1.00;;
15480;SDS011;7842;50.904;6.670;2023-05-10T12:52:36;2.10;;;1.10;;
15480;SDS011;7842;50.904;6.670;2023-05-10T12:55:02;2.15;;;1.38;;
15480;SDS011;7842;50.904;6.670;2023-05-10T12:57:28;1.55;;;1.30;;
15480;SDS011;7842;50.904;6.670;2023-05-10T12:59:54;1.70;;;1.20;;
15480;SDS011;7842;50.904;6.670;2023-05-10T13:02:20;1.38;;;1.27;;
15480;SDS011;7842;50.904;6.670;2023-05-10T13:04:48;2.42;;;1.52;;
15480;SDS011;7842;50.904;6.670;2023-05-10T13:07:14;2.30;;;1.60;;
15480;SDS011;7842;50.904;6.670;2023-05-10T13:09:40;1.65;;;1.50;;
15480;SDS011;7842;50.904;6.670;2023-05-10T13:12:06;2.27;;;1.33;;
15480;SDS011;7842;50.904;6.670;2023-05-10T13:14:32;1.77;;;1.60;;
15480;SDS011;7842;50.904;6.670;2023-05-10T13:16:58;1.80;;;1.50;;
15480;SDS011;7842;50.904;6.670;2023-05-10T13:19:24;1.90;;;1.52;;
15480;SDS011;7842;50.904;6.670;2023-05-10T13:21:50;1.90;;;1.70;;
15480;SDS011;7842;50.904;6.670;2023-05-10T13:24:16;2.80;;;1.90;;
15480;SDS011;7842;50.904;6.670;2023-05-10T13:26:42;2.15;;;1.90;;
15480;SDS011;7842;50.904;6.670;2023-05-10T13:29:08;2.00;;;1.90;;
15480;SDS011;7842;50.904;6.670;2023-05-10T13:31:35;2.17;;;1.97;;
15480;SDS011;7842;50.904;6.670;2023-05-10T13:34:01;2.30;;;2.10;;
15480;SDS011;7842;50.904;6.670;2023-05-10T13:36:27;2.33;;;1.95;;
15480;SDS011;7842;50.904;6.670;2023-05-10T13:38:53;2.55;;;1.88;;
15480;SDS011;7842;50.904;6.670;2023-05-10T13:41:19;1.70;;;1.60;;
15480;SDS011;7842;50.904;6.670;2023-05-10T13:43:45;3.13;;;1.70;;
15480;SDS011;7842;50.904;6.670;2023-05-10T13:46:13;2.72;;;2.10;;
15480;SDS011;7842;50.904;6.670;2023-05-10T13:48:39;2.72;;;1.90;;
15480;SDS011;7842;50.904;6.670;2023-05-10T13:51:05;3.10;;;2.10;;
15480;SDS011;7842;50.904;6.670;2023-05-10T13:53:31;2.65;;;2.22;;
15480;SDS011;7842;50.904;6.670;2023-05-10T13:55:58;2.53;;;2.20;;
15480;SDS011;7842;50.904;6.670;2023-05-10T13:58:24;2.72;;;2.17;;
15480;SDS011;7842;50.904;6.670;2023-05-10T14:00:50;3.97;;;2.28;;
15480;SDS011;7842;50.904;6.670;2023-05-10T14:03:16;2.92;;;2.55;;
15480;SDS011;7842;50.904;6.670;2023-05-10T14:05:42;2.58;;;2.38;;
15480;SDS011;7842;50.904;6.670;2023-05-10T14:08:09;4.10;;;2.90;;
15480;SDS011;7842;50.904;6.670;2023-05-10T14:10:38;3.67;;;3.10;;
15480;SDS011;7842;50.904;6.670;2023-05-10T14:13:04;3.50;;;2.90;;
15480;SDS011;7842;50.904;6.670;2023-05-10T14:15:31;3.17;;;2.88;;
15480;SDS011;7842;50.904;6.670;2023-05-10T14:18:00;4.03;;;3.00;;
15480;SDS011;7842;50.904;6.670;2023-05-10T14:20:26;4.70;;;3.15;;
15480;SDS011;7842;50.904;6.670;2023-05-10T14:22:52;3.90;;;2.90;;
15480;SDS011;7842;50.904;6.670;2023-05-10T14:25:18;4.70;;;2.70;;
15480;SDS011;7842;50.904;6.670;2023-05-10T14:27:44;4.57;;;2.80;;
15480;SDS011;7842;50.904;6.670;2023-05-10T14:30:10;3.50;;;3.08;;
15480;SDS011;7842;50.904;6.670;2023-05-10T14:32:36;4.80;;;2.92;;
15480;SDS011;7842;50.904;6.670;2023-05-10T14:35:02;3.60;;;2.97;;
15480;SDS011;7842;50.904;6.670;2023-05-10T14:37:29;3.35;;;3.05;;
15480;SDS011;7842;50.904;6.670;2023-05-10T14:39:55;3.80;;;2.97;;
15480;SDS011;7842;50.904;6.670;2023-05-10T14:42:21;4.00;;;3.00;;
15480;SDS011;7842;50.904;6.670;2023-05-10T14:44:46;4.13;;;3.00;;
15480;SDS011;7842;50.904;6.670;2023-05-10T14:47:12;3.20;;;2.90;;
15480;SDS011;7842;50.904;6.670;2023-05-10T14:49:39;3.35;;;2.85;;
15480;SDS011;7842;50.904;6.670;2023-05-10T14:52:05;4.10;;;2.67;;
15480;SDS011;7842;50.904;6.670;2023-05-10T14:54:31;3.10;;;2.80;;
15480;SDS011;7842;50.904;6.670;2023-05-10T14:57:00;3.65;;;2.60;;
15480;SDS011;7842;50.904;6.670;2023-05-10T14:59:26;2.67;;;2.33;;
15480;SDS011;7842;50.904;6.670;2023-05-10T15:01:52;2.88;;;2.40;;
15480;SDS011;7842;50.904;6.670;2023-05-10T15:04:18;3.22;;;2.00;;
15480;SDS011;7842;50.904;6.670;2023-05-10T15:06:44;2.75;;;2.05;;
15480;SDS011;7842;50.904;6.670;2023-05-10T15:09:10;3.35;;;1.90;;
15480;SDS011;7842;50.904;6.670;2023-05-10T15:11:36;2.85;;;2.10;;